sensor_id;sensor_type;location;lat;lon;timestamp;P1;durP1;ratioP1;P2;durP2;ratioP2
36829;SDS011;22767;47.328;9.640;2024-03-02T00:01:37;12.70;;;11.27;;
36829;SDS011;22767;47.328;9.640;2024-03-02T00:04:04;13.38;;;11.73;;
36829;SDS011;22767;47.328;9.640;2024-03-02T00:06:31;14.00;;;11.15;;
36829;SDS011;22767;47.328;9.640;2024-03-02T00:09:04;12.32;;;10.68;;
36829;SDS011;22767;47.328;9.640;2024-03-02T00:11:30;15.27;;;12.52;;
36829;SDS011;22767;47.328;9.640;2024-03-02T00:14:03;13.05;;;10.90;;
36829;SDS011;22767;47.328;9.640;2024-03-02T00:16:35;13.25;;;11.85;;
36829;SDS011;22767;47.328;9.640;2024-03-02T00:19:02;14.00;;;11.80;;
36829;SDS011;22767;47.328;9.640;2024-03-02T00:21:30;15.55;;;11.70;;
36829;SDS011;22767;47.328;9.640;2024-03-02T00:23:57;13.38;;;11.48;;
36829;SDS011;22767;47.328;9.640;2024-03-02T00:26:23;13.70;;;11.43;;
36829;SDS011;22767;47.328;9.640;2024-03-02T00:28:49;13.02;;;11.52;;
36829;SDS011;22767;47.328;9.640;2024-03-02T00:31:15;12.30;;;10.90;;
36829;SDS011;22767;47.328;9.640;2024-03-02T00:36:08;12.25;;;10.95;;
36829;SDS011;22767;47.328;9.640;2024-03-02T00:38:45;15.63;;;12.07;;
36829;SDS011;22767;47.328;9.640;2024-03-02T00:41:21;13.55;;;12.13;;
36829;SDS011;22767;47.328;9.640;2024-03-02T00:46:32;15.27;;;13.60;;
36829;SDS011;22767;47.328;9.640;2024-03-02T00:48:59;15.35;;;13.25;;
36829;SDS011;22767;47.328;9.640;2024-03-02T00:51:26;17.67;;;14.05;;
36829;SDS011;22767;47.328;9.640;2024-03-02T00:53:53;15.95;;;14.20;;
36829;SDS011;22767;47.328;9.640;2024-03-02T00:56:28;15.55;;;13.30;;
36829;SDS011;22767;47.328;9.640;2024-03-02T01:01:22;15.82;;;14.07;;
36829;SDS011;22767;47.328;9.640;2024-03-02T01:03:49;16.40;;;13.93;;
36829;SDS011;22767;47.328;9.640;2024-03-02T01:06:15;18.20;;;13.95;;
36829;SDS011;22767;47.328;9.640;2024-03-02T01:08:41;18.08;;;14.75;;
36829;SDS011;22767;47.328;9.640;2024-03-02T01:11:07;17.75;;;15.80;;
36829;SDS011;22767;47.328;9.640;2024-03-02T01:13:33;15.60;;;13.95;;
36829;SDS011;22767;47.328;9.640;2024-03-02T01:16:06;13.27;;;11.80;;
36829;SDS011;22767;47.328;9.640;2024-03-02T01:18:32;16.88;;;14.48;;
36829;SDS011;22767;47.328;9.640;2024-03-02T01:20:58;17.35;;;13.30;;
36829;SDS011;22767;47.328;9.640;2024-03-02T01:23:24;16.70;;;13.75;;
36829;SDS011;22767;47.328;9.640;2024-03-02T01:25:51;13.85;;;12.45;;
36829;SDS011;22767;47.328;9.640;2024-03-02T01:28:18;13.15;;;11.70;;
36829;SDS011;22767;47.328;9.640;2024-03-02T01:30:46;14.30;;;11.98;;
36829;SDS011;22767;47.328;9.640;2024-03-02T01:33:12;16.00;;;13.90;;
36829;SDS011;22767;47.328;9.640;2024-03-02T01:35:38;14.30;;;12.65;;
36829;SDS011;22767;47.328;9.640;2024-03-02T01:38:04;16.80;;;13.93;;
36829;SDS011;22767;47.328;9.640;2024-03-02T01:40:36;14.88;;;12.68;;
36829;SDS011;22767;47.328;9.640;2024-03-02T01:43:03;17.55;;;14.32;;
36829;SDS011;22767;47.328;9.640;2024-03-02T01:45:29;15.75;;;13.52;;
36829;SDS011;22767;47.328;9.640;2024-03-02T01:47:56;13.35;;;11.95;;
36829;SDS011;22767;47.328;9.640;2024-03-02T01:50:26;14.23;;;12.70;;
36829;SDS011;22767;47.328;9.640;2024-03-02T01:52:52;15.25;;;12.93;;
36829;SDS011;22767;47.328;9.640;2024-03-02T01:55:18;14.30;;;12.80;;
36829;SDS011;22767;47.328;9.640;2024-03-02T01:57:44;13.98;;;11.50;;
36829;SDS011;22767;47.328;9.640;2024-03-02T02:00:12;8.48;;;7.53;;
36829;SDS011;22767;47.328;9.640;2024-03-02T02:02:38;9.18;;;7.88;;
36829;SDS011;22767;47.328;9.640;2024-03-02T02:05:11;10.45;;;7.55;;
36829;SDS011;22767;47.328;9.640;2024-03-02T02:07:37;8.25;;;7.22;;
36829;SDS011;22767;47.328;9.640;2024-03-02T02:10:03;10.07;;;8.60;;
36829;SDS011;22767;47.328;9.640;2024-03-02T02:12:30;9.30;;;8.40;;
36829;SDS011;22767;47.328;9.640;2024-03-02T02:14:56;11.13;;;9.15;;
36829;SDS011;22767;47.328;9.640;2024-03-02T02:17:22;10.70;;;9.52;;
36829;SDS011;22767;47.328;9.640;2024-03-02T02:19:48;13.32;;;9.60;;
36829;SDS011;22767;47.328;9.640;2024-03-02T02:22:14;10.90;;;9.52;;
36829;SDS011;22767;47.328;9.640;2024-03-02T02:24:40;10.80;;;8.98;;
36829;SDS011;22767;47.328;9.640;2024-03-02T02:27:07;10.07;;;9.05;;
36829;SDS011;22767;47.328;9.640;2024-03-02T02:29:33;12.07;;;8.98;;
36829;SDS011;22767;47.328;9.640;2024-03-02T02:31:59;11.55;;;9.02;;
36829;SDS011;22767;47.328;9.640;2024-03-02T02:34:25;11.10;;;9.40;;
36829;SDS011;22767;47.328;9.640;2024-03-02T02:36:52;10.73;;;9.02;;
36829;SDS011;22767;47.328;9.640;2024-03-02T02:39:18;10.23;;;9.10;;
36829;SDS011;22767;47.328;9.640;2024-03-02T02:41:52;12.48;;;10.27;;
36829;SDS011;22767;47.328;9.640;2024-03-02T02:44:18;10.82;;;9.73;;
36829;SDS011;22767;47.328;9.640;2024-03-02T02:46:44;11.02;;;9.55;;
36829;SDS011;22767;47.328;9.640;2024-03-02T02:49:10;9.45;;;8.45;;
36829;SDS011;22767;47.328;9.640;2024-03-02T02:51:36;8.85;;;7.95;;
36829;SDS011;22767;47.328;9.640;2024-03-02T02:54:02;8.77;;;7.88;;
36829;SDS011;22767;47.328;9.640;2024-03-02T02:56:28;10.27;;;8.38;;
36829;SDS011;22767;47.328;9.640;2024-03-02T02:58:54;10.23;;;9.18;;
36829;SDS011;22767;47.328;9.640;2024-03-02T03:01:20;10.63;;;9.07;;
36829;SDS011;22767;47.328;9.640;2024-03-02T03:03:53;9.38;;;8.30;;
36829;SDS011;22767;47.328;9.640;2024-03-02T03:06:19;8.82;;;7.63;;
36829;SDS011;22767;47.328;9.640;2024-03-02T03:08:45;9.43;;;7.95;;
36829;SDS011;22767;47.328;9.640;2024-03-02T03:11:11;9.77;;;8.77;;
36829;SDS011;22767;47.328;9.640;2024-03-02T03:13:37;10.30;;;8.82;;
36829;SDS011;22767;47.328;9.640;2024-03-02T03:16:03;9.55;;;8.32;;
36829;SDS011;22767;47.328;9.640;2024-03-02T03:18:32;9.10;;;8.05;;
36829;SDS011;22767;47.328;9.640;2024-03-02T03:20:59;9.70;;;8.63;;
36829;SDS011;22767;47.328;9.640;2024-03-02T03:23:25;9.52;;;8.13;;
36829;SDS011;22767;47.328;9.640;2024-03-02T03:25:51;9.10;;;7.93;;
36829;SDS011;22767;47.328;9.640;2024-03-02T03:28:17;10.50;;;8.27;;
36829;SDS011;22767;47.328;9.640;2024-03-02T03:30:43;10.13;;;8.60;;
36829;SDS011;22767;47.328;9.640;2024-03-02T03:33:09;11.45;;;9.05;;
36829;SDS011;22767;47.328;9.640;2024-03-02T03:35:36;11.82;;;8.75;;
36829;SDS011;22767;47.328;9.640;2024-03-02T03:38:02;12.25;;;8.48;;
36829;SDS011;22767;47.328;9.640;2024-03-02T03:40:28;10.77;;;8.30;;
36829;SDS011;22767;47.328;9.640;2024-03-02T03:42:54;12.15;;;8.25;;
36829;SDS011;22767;47.328;9.640;2024-03-02T03:45:21;11.48;;;8.73;;
36829;SDS011;22767;47.328;9.640;2024-03-02T03:47:47;9.93;;;8.38;;
36829;SDS011;22767;47.328;9.640;2024-03-02T03:50:13;12.98;;;9.25;;
36829;SDS011;22767;47.328;9.640;2024-03-02T03:52:40;11.30;;;9.32;;
36829;SDS011;22767;47.328;9.640;2024-03-02T03:55:12;12.15;;;9.52;;
36829;SDS011;22767;47.328;9.640;2024-03-02T03:57:38;13.82;;;9.73;;
36829;SDS011;22767;47.328;9.640;2024-03-02T04:00:11;12.13;;;9.23;;
36829;SDS011;22767;47.328;9.640;2024-03-02T04:02:40;12.15;;;9.30;;
36829;SDS011;22767;47.328;9.640;2024-03-02T04:05:13;11.18;;;9.35;;
36829;SDS011;22767;47.328;9.640;2024-03-02T04:10:06;11.85;;;8.50;;
36829;SDS011;22767;47.328;9.640;2024-03-02T04:12:33;11.45;;;8.60;;
36829;SDS011;22767;47.328;9.640;2024-03-02T04:15:00;10.95;;;9.20;;
36829;SDS011;22767;47.328;9.640;2024-03-02T04:17:26;12.52;;;9.27;;
36829;SDS011;22767;47.328;9.640;2024-03-02T04:19:52;14.55;;;9.43;;
36829;SDS011;22767;47.328;9.640;2024-03-02T04:22:19;14.40;;;10.13;;
36829;SDS011;22767;47.328;9.640;2024-03-02T04:24:45;10.75;;;9.60;;
36829;SDS011;22767;47.328;9.640;2024-03-02T04:27:11;13.30;;;10.30;;
36829;SDS011;22767;47.328;9.640;2024-03-02T04:29:37;11.80;;;9.93;;
36829;SDS011;22767;47.328;9.640;2024-03-02T04:32:03;11.02;;;9.15;;
36829;SDS011;22767;47.328;9.640;2024-03-02T04:34:29;9.30;;;7.90;;
36829;SDS011;22767;47.328;9.640;2024-03-02T04:36:55;8.80;;;6.97;;
36829;SDS011;22767;47.328;9.640;2024-03-02T04:39:28;6.75;;;6.05;;
36829;SDS011;22767;47.328;9.640;2024-03-02T04:41:54;9.05;;;7.40;;
36829;SDS011;22767;47.328;9.640;2024-03-02T04:44:20;9.73;;;7.68;;
36829;SDS011;22767;47.328;9.640;2024-03-02T04:46:46;8.55;;;7.45;;
36829;SDS011;22767;47.328;9.640;2024-03-02T04:49:12;9.20;;;6.80;;
36829;SDS011;22767;47.328;9.640;2024-03-02T04:51:38;7.32;;;6.55;;
36829;SDS011;22767;47.328;9.640;2024-03-02T04:54:11;9.10;;;8.10;;
36829;SDS011;22767;47.328;9.640;2024-03-02T04:56:39;11.82;;;8.98;;
36829;SDS011;22767;47.328;9.640;2024-03-02T04:59:09;13.60;;;10.13;;
36829;SDS011;22767;47.328;9.640;2024-03-02T05:01:42;14.75;;;10.02;;
36829;SDS011;22767;47.328;9.640;2024-03-02T05:04:11;14.52;;;10.48;;
36829;SDS011;22767;47.328;9.640;2024-03-02T05:06:37;12.85;;;10.05;;
36829;SDS011;22767;47.328;9.640;2024-03-02T05:09:06;12.63;;;9.68;;
36829;SDS011;22767;47.328;9.640;2024-03-02T05:11:33;11.95;;;9.68;;
36829;SDS011;22767;47.328;9.640;2024-03-02T05:14:05;12.50;;;9.13;;
36829;SDS011;22767;47.328;9.640;2024-03-02T05:16:35;11.20;;;9.50;;
36829;SDS011;22767;47.328;9.640;2024-03-02T05:19:06;10.13;;;8.52;;
36829;SDS011;22767;47.328;9.640;2024-03-02T05:21:32;12.23;;;8.60;;
36829;SDS011;22767;47.328;9.640;2024-03-02T05:23:58;13.55;;;7.95;;
36829;SDS011;22767;47.328;9.640;2024-03-02T05:26:24;10.30;;;8.38;;
36829;SDS011;22767;47.328;9.640;2024-03-02T05:28:50;21.33;;;13.48;;
36829;SDS011;22767;47.328;9.640;2024-03-02T05:31:23;11.70;;;9.50;;
36829;SDS011;22767;47.328;9.640;2024-03-02T05:33:49;11.20;;;8.52;;
36829;SDS011;22767;47.328;9.640;2024-03-02T05:36:15;11.95;;;9.20;;
36829;SDS011;22767;47.328;9.640;2024-03-02T05:38:41;10.02;;;8.23;;
36829;SDS011;22767;47.328;9.640;2024-03-02T05:41:07;11.75;;;8.65;;
36829;SDS011;22767;47.328;9.640;2024-03-02T05:43:33;9.77;;;8.48;;
36829;SDS011;22767;47.328;9.640;2024-03-02T05:45:59;10.98;;;7.93;;
36829;SDS011;22767;47.328;9.640;2024-03-02T05:48:26;10.55;;;7.72;;
36829;SDS011;22767;47.328;9.640;2024-03-02T05:50:52;11.57;;;8.52;;
36829;SDS011;22767;47.328;9.640;2024-03-02T05:53:18;9.38;;;7.55;;
36829;SDS011;22767;47.328;9.640;2024-03-02T05:55:44;10.65;;;7.40;;
36829;SDS011;22767;47.328;9.640;2024-03-02T05:58:10;11.05;;;8.02;;
36829;SDS011;22767;47.328;9.640;2024-03-02T06:00:52;14.95;;;9.48;;
36829;SDS011;22767;47.328;9.640;2024-03-02T06:03:26;11.95;;;9.02;;
36829;SDS011;22767;47.328;9.640;2024-03-02T06:05:53;11.75;;;8.23;;
36829;SDS011;22767;47.328;9.640;2024-03-02T06:08:19;10.98;;;8.32;;
36829;SDS011;22767;47.328;9.640;2024-03-02T06:10:45;12.50;;;8.55;;
36829;SDS011;22767;47.328;9.640;2024-03-02T06:13:11;10.45;;;8.50;;
36829;SDS011;22767;47.328;9.640;2024-03-02T06:15:37;10.93;;;8.82;;
36829;SDS011;22767;47.328;9.640;2024-03-02T06:18:03;9.77;;;7.85;;
36829;SDS011;22767;47.328;9.640;2024-03-02T06:20:31;11.77;;;8.65;;
36829;SDS011;22767;47.328;9.640;2024-03-02T06:23:04;16.60;;;13.45;;
36829;SDS011;22767;47.328;9.640;2024-03-02T06:25:30;13.10;;;9.95;;
36829;SDS011;22767;47.328;9.640;2024-03-02T06:28:03;11.35;;;9.57;;
36829;SDS011;22767;47.328;9.640;2024-03-02T06:30:29;10.73;;;8.65;;
36829;SDS011;22767;47.328;9.640;2024-03-02T06:32:55;10.52;;;8.93;;
36829;SDS011;22767;47.328;9.640;2024-03-02T06:35:21;11.48;;;8.68;;
36829;SDS011;22767;47.328;9.640;2024-03-02T06:37:47;10.60;;;9.02;;
36829;SDS011;22767;47.328;9.640;2024-03-02T06:40:13;15.77;;;8.15;;
36829;SDS011;22767;47.328;9.640;2024-03-02T06:42:39;10.43;;;7.68;;
36829;SDS011;22767;47.328;9.640;2024-03-02T06:45:05;12.70;;;7.78;;
36829;SDS011;22767;47.328;9.640;2024-03-02T06:47:32;9.93;;;8.18;;
36829;SDS011;22767;47.328;9.640;2024-03-02T06:49:58;9.43;;;7.80;;
36829;SDS011;22767;47.328;9.640;2024-03-02T06:52:30;10.75;;;7.55;;
36829;SDS011;22767;47.328;9.640;2024-03-02T06:54:57;8.35;;;7.47;;
36829;SDS011;22767;47.328;9.640;2024-03-02T06:57:23;12.93;;;9.45;;
36829;SDS011;22767;47.328;9.640;2024-03-02T06:59:50;12.40;;;7.50;;
36829;SDS011;22767;47.328;9.640;2024-03-02T07:02:18;10.57;;;7.70;;
36829;SDS011;22767;47.328;9.640;2024-03-02T07:04:45;8.13;;;6.65;;
36829;SDS011;22767;47.328;9.640;2024-03-02T07:07:11;8.82;;;6.82;;
36829;SDS011;22767;47.328;9.640;2024-03-02T07:09:37;9.68;;;6.72;;
36829;SDS011;22767;47.328;9.640;2024-03-02T07:12:03;10.25;;;6.80;;
36829;SDS011;22767;47.328;9.640;2024-03-02T07:14:35;9.80;;;6.65;;
36829;SDS011;22767;47.328;9.640;2024-03-02T07:17:20;7.55;;;6.05;;
36829;SDS011;22767;47.328;9.640;2024-03-02T07:19:46;6.55;;;5.88;;
36829;SDS011;22767;47.328;9.640;2024-03-02T07:22:12;7.32;;;6.03;;
36829;SDS011;22767;47.328;9.640;2024-03-02T07:24:39;8.05;;;6.70;;
36829;SDS011;22767;47.328;9.640;2024-03-02T07:27:06;7.20;;;6.07;;
36829;SDS011;22767;47.328;9.640;2024-03-02T07:29:32;6.18;;;5.13;;
36829;SDS011;22767;47.328;9.640;2024-03-02T07:31:58;6.78;;;5.13;;
36829;SDS011;22767;47.328;9.640;2024-03-02T07:34:24;7.43;;;5.32;;
36829;SDS011;22767;47.328;9.640;2024-03-02T07:36:50;7.93;;;5.80;;
36829;SDS011;22767;47.328;9.640;2024-03-02T07:39:16;8.15;;;5.88;;
36829;SDS011;22767;47.328;9.640;2024-03-02T07:41:42;9.77;;;6.15;;
36829;SDS011;22767;47.328;9.640;2024-03-02T07:44:08;7.88;;;5.95;;
36829;SDS011;22767;47.328;9.640;2024-03-02T07:46:43;8.68;;;6.25;;
36829;SDS011;22767;47.328;9.640;2024-03-02T07:49:09;8.77;;;5.40;;
36829;SDS011;22767;47.328;9.640;2024-03-02T07:51:35;6.22;;;4.53;;
36829;SDS011;22767;47.328;9.640;2024-03-02T07:54:01;5.10;;;4.15;;
36829;SDS011;22767;47.328;9.640;2024-03-02T07:56:27;6.03;;;4.10;;
36829;SDS011;22767;47.328;9.640;2024-03-02T07:58:54;5.72;;;4.25;;
36829;SDS011;22767;47.328;9.640;2024-03-02T08:01:25;4.88;;;4.30;;
36829;SDS011;22767;47.328;9.640;2024-03-02T08:03:51;4.30;;;3.75;;
36829;SDS011;22767;47.328;9.640;2024-03-02T08:06:17;5.72;;;3.63;;
36829;SDS011;22767;47.328;9.640;2024-03-02T08:08:46;4.60;;;3.90;;
36829;SDS011;22767;47.328;9.640;2024-03-02T08:11:12;6.00;;;4.28;;
36829;SDS011;22767;47.328;9.640;2024-03-02T08:13:38;4.50;;;3.95;;
36829;SDS011;22767;47.328;9.640;2024-03-02T08:16:07;4.90;;;3.65;;
36829;SDS011;22767;47.328;9.640;2024-03-02T08:18:34;4.82;;;3.65;;
36829;SDS011;22767;47.328;9.640;2024-03-02T08:21:00;3.78;;;3.40;;
36829;SDS011;22767;47.328;9.640;2024-03-02T08:23:27;4.07;;;3.67;;
36829;SDS011;22767;47.328;9.640;2024-03-02T08:25:53;3.65;;;2.72;;
36829;SDS011;22767;47.328;9.640;2024-03-02T08:28:19;7.00;;;4.40;;
36829;SDS011;22767;47.328;9.640;2024-03-02T08:30:45;5.53;;;3.75;;
36829;SDS011;22767;47.328;9.640;2024-03-02T08:33:11;5.93;;;4.13;;
36829;SDS011;22767;47.328;9.640;2024-03-02T08:35:43;5.00;;;4.40;;
36829;SDS011;22767;47.328;9.640;2024-03-02T08:38:10;5.60;;;4.95;;
36829;SDS011;22767;47.328;9.640;2024-03-02T08:58:56;5.40;;;4.43;;
36829;SDS011;22767;47.328;9.640;2024-03-02T09:01:22;6.97;;;4.43;;
36829;SDS011;22767;47.328;9.640;2024-03-02T09:03:49;6.40;;;4.38;;
36829;SDS011;22767;47.328;9.640;2024-03-02T09:06:21;4.85;;;4.35;;
36829;SDS011;22767;47.328;9.640;2024-03-02T09:08:47;5.80;;;4.20;;
36829;SDS011;22767;47.328;9.640;2024-03-02T09:11:15;5.97;;;4.47;;
36829;SDS011;22767;47.328;9.640;2024-03-02T09:13:41;4.30;;;3.90;;
36829;SDS011;22767;47.328;9.640;2024-03-02T09:16:07;5.53;;;3.72;;
36829;SDS011;22767;47.328;9.640;2024-03-02T09:18:36;3.88;;;3.42;;
36829;SDS011;22767;47.328;9.640;2024-03-02T09:21:02;4.55;;;3.40;;
36829;SDS011;22767;47.328;9.640;2024-03-02T09:23:29;3.42;;;3.13;;
36829;SDS011;22767;47.328;9.640;2024-03-02T09:25:55;5.00;;;3.55;;
36829;SDS011;22767;47.328;9.640;2024-03-02T09:28:21;3.92;;;3.00;;
36829;SDS011;22767;47.328;9.640;2024-03-02T09:30:47;3.30;;;2.97;;
36829;SDS011;22767;47.328;9.640;2024-03-02T09:33:13;2.90;;;2.70;;
36829;SDS011;22767;47.328;9.640;2024-03-02T09:53:19;2.33;;;1.98;;
36829;SDS011;22767;47.328;9.640;2024-03-02T09:55:46;2.53;;;1.63;;
36829;SDS011;22767;47.328;9.640;2024-03-02T09:58:12;4.78;;;3.40;;
36829;SDS011;22767;47.328;9.640;2024-03-02T10:00:38;6.03;;;1.95;;
36829;SDS011;22767;47.328;9.640;2024-03-02T10:03:04;4.30;;;1.83;;
36829;SDS011;22767;47.328;9.640;2024-03-02T10:05:31;1.40;;;1.30;;
36829;SDS011;22767;47.328;9.640;2024-03-02T10:08:00;4.32;;;1.40;;
36829;SDS011;22767;47.328;9.640;2024-03-02T10:10:38;1.38;;;1.23;;
36829;SDS011;22767;47.328;9.640;2024-03-02T10:13:05;3.33;;;1.85;;
36829;SDS011;22767;47.328;9.640;2024-03-02T10:15:32;2.15;;;1.40;;
36829;SDS011;22767;47.328;9.640;2024-03-02T10:17:58;3.50;;;1.38;;
36829;SDS011;22767;47.328;9.640;2024-03-02T10:20:24;1.55;;;1.38;;
36829;SDS011;22767;47.328;9.640;2024-03-02T10:22:51;1.20;;;1.10;;
36829;SDS011;22767;47.328;9.640;2024-03-02T10:25:32;1.38;;;1.20;;
36829;SDS011;22767;47.328;9.640;2024-03-02T10:27:59;1.38;;;1.15;;
36829;SDS011;22767;47.328;9.640;2024-03-02T10:30:34;1.70;;;1.30;;
36829;SDS011;22767;47.328;9.640;2024-03-02T10:33:01;1.65;;;1.10;;
36829;SDS011;22767;47.328;9.640;2024-03-02T10:35:27;1.15;;;0.90;;
36829;SDS011;22767;47.328;9.640;2024-03-02T10:37:53;1.23;;;1.00;;
36829;SDS011;22767;47.328;9.640;2024-03-02T10:40:23;3.10;;;1.10;;
36829;SDS011;22767;47.328;9.640;2024-03-02T10:42:52;3.30;;;1.10;;
36829;SDS011;22767;47.328;9.640;2024-03-02T10:45:19;1.90;;;1.10;;
36829;SDS011;22767;47.328;9.640;2024-03-02T10:47:49;1.70;;;1.25;;
36829;SDS011;22767;47.328;9.640;2024-03-02T10:50:15;1.52;;;1.10;;
36829;SDS011;22767;47.328;9.640;2024-03-02T10:52:42;2.78;;;1.30;;
36829;SDS011;22767;47.328;9.640;2024-03-02T10:55:08;1.88;;;1.40;;
36829;SDS011;22767;47.328;9.640;2024-03-02T11:00:07;3.25;;;1.20;;
36829;SDS011;22767;47.328;9.640;2024-03-02T11:02:40;1.75;;;1.15;;
36829;SDS011;22767;47.328;9.640;2024-03-02T11:05:07;2.45;;;1.35;;
36829;SDS011;22767;47.328;9.640;2024-03-02T11:07:35;1.55;;;1.45;;
36829;SDS011;22767;47.328;9.640;2024-03-02T11:10:02;2.05;;;1.23;;
36829;SDS011;22767;47.328;9.640;2024-03-02T11:12:42;1.45;;;1.20;;
36829;SDS011;22767;47.328;9.640;2024-03-02T11:15:10;1.25;;;1.02;;
36829;SDS011;22767;47.328;9.640;2024-03-02T11:17:43;1.77;;;1.42;;
36829;SDS011;22767;47.328;9.640;2024-03-02T11:20:09;2.00;;;1.15;;
36829;SDS011;22767;47.328;9.640;2024-03-02T11:22:36;2.80;;;1.20;;
36829;SDS011;22767;47.328;9.640;2024-03-02T11:25:03;1.85;;;1.33;;
36829;SDS011;22767;47.328;9.640;2024-03-02T11:27:58;1.70;;;1.30;;
36829;SDS011;22767;47.328;9.640;2024-03-02T11:33:08;1.00;;;0.90;;
36829;SDS011;22767;47.328;9.640;2024-03-02T11:35:42;1.70;;;1.17;;
36829;SDS011;22767;47.328;9.640;2024-03-02T11:38:08;1.48;;;0.90;;
36829;SDS011;22767;47.328;9.640;2024-03-02T11:40:35;1.95;;;1.00;;
36829;SDS011;22767;47.328;9.640;2024-03-02T11:43:01;1.05;;;0.95;;
36829;SDS011;22767;47.328;9.640;2024-03-02T11:45:28;1.00;;;0.88;;
36829;SDS011;22767;47.328;9.640;2024-03-02T11:47:56;1.00;;;0.80;;
36829;SDS011;22767;47.328;9.640;2024-03-02T11:50:29;1.02;;;0.93;;
36829;SDS011;22767;47.328;9.640;2024-03-02T11:52:56;1.83;;;0.90;;
36829;SDS011;22767;47.328;9.640;2024-03-02T11:55:37;1.08;;;1.00;;
36829;SDS011;22767;47.328;9.640;2024-03-02T11:58:11;2.35;;;1.20;;
36829;SDS011;22767;47.328;9.640;2024-03-02T12:00:39;2.70;;;1.30;;
36829;SDS011;22767;47.328;9.640;2024-03-02T12:03:06;1.90;;;1.20;;
36829;SDS011;22767;47.328;9.640;2024-03-02T12:05:33;2.75;;;1.30;;
36829;SDS011;22767;47.328;9.640;2024-03-02T12:08:00;2.45;;;1.33;;
36829;SDS011;22767;47.328;9.640;2024-03-02T12:10:27;1.58;;;1.48;;
36829;SDS011;22767;47.328;9.640;2024-03-02T12:13:04;3.33;;;1.30;;
36829;SDS011;22767;47.328;9.640;2024-03-02T12:15:36;2.47;;;1.40;;
36829;SDS011;22767;47.328;9.640;2024-03-02T12:18:03;1.65;;;1.23;;
36829;SDS011;22767;47.328;9.640;2024-03-02T12:20:29;1.67;;;1.33;;
36829;SDS011;22767;47.328;9.640;2024-03-02T12:22:58;1.83;;;1.33;;
36829;SDS011;22767;47.328;9.640;2024-03-02T12:25:31;2.28;;;1.20;;
36829;SDS011;22767;47.328;9.640;2024-03-02T12:28:01;1.83;;;1.50;;
36829;SDS011;22767;47.328;9.640;2024-03-02T12:30:29;1.60;;;1.50;;
36829;SDS011;22767;47.328;9.640;2024-03-02T12:32:55;2.00;;;1.25;;
36829;SDS011;22767;47.328;9.640;2024-03-02T12:35:21;2.70;;;1.50;;
36829;SDS011;22767;47.328;9.640;2024-03-02T12:37:51;1.20;;;1.10;;
36829;SDS011;22767;47.328;9.640;2024-03-02T12:40:18;2.00;;;1.20;;
36829;SDS011;22767;47.328;9.640;2024-03-02T12:42:45;1.83;;;1.42;;
36829;SDS011;22767;47.328;9.640;2024-03-02T12:45:11;2.47;;;1.10;;
36829;SDS011;22767;47.328;9.640;2024-03-02T12:50:23;1.48;;;1.10;;
36829;SDS011;22767;47.328;9.640;2024-03-02T12:52:52;2.50;;;1.40;;
36829;SDS011;22767;47.328;9.640;2024-03-02T12:55:19;2.63;;;1.80;;
36829;SDS011;22767;47.328;9.640;2024-03-02T12:57:47;2.92;;;1.70;;
36829;SDS011;22767;47.328;9.640;2024-03-02T13:00:13;1.73;;;1.40;;
36829;SDS011;22767;47.328;9.640;2024-03-02T13:02:40;2.65;;;1.45;;
36829;SDS011;22767;47.328;9.640;2024-03-02T13:05:06;1.58;;;1.20;;
36829;SDS011;22767;47.328;9.640;2024-03-02T13:07:39;1.70;;;1.25;;
36829;SDS011;22767;47.328;9.640;2024-03-02T13:10:06;2.38;;;1.30;;
36829;SDS011;22767;47.328;9.640;2024-03-02T13:12:35;1.23;;;0.95;;
36829;SDS011;22767;47.328;9.640;2024-03-02T13:15:02;1.30;;;1.00;;
36829;SDS011;22767;47.328;9.640;2024-03-02T13:17:35;1.08;;;0.98;;
36829;SDS011;22767;47.328;9.640;2024-03-02T13:20:04;1.08;;;0.80;;
36829;SDS011;22767;47.328;9.640;2024-03-02T13:22:39;1.17;;;0.80;;
36829;SDS011;22767;47.328;9.640;2024-03-02T13:25:05;0.63;;;0.63;;
36829;SDS011;22767;47.328;9.640;2024-03-02T13:27:35;0.98;;;0.60;;
36829;SDS011;22767;47.328;9.640;2024-03-02T13:30:02;0.80;;;0.50;;
36829;SDS011;22767;47.328;9.640;2024-03-02T13:32:35;0.45;;;0.43;;
36829;SDS011;22767;47.328;9.640;2024-03-02T13:35:01;1.27;;;0.60;;
36829;SDS011;22767;47.328;9.640;2024-03-02T13:37:28;1.48;;;0.50;;
36829;SDS011;22767;47.328;9.640;2024-03-02T13:39:54;0.43;;;0.43;;
36829;SDS011;22767;47.328;9.640;2024-03-02T13:42:20;0.60;;;0.60;;
36829;SDS011;22767;47.328;9.640;2024-03-02T13:44:46;0.93;;;0.50;;
36829;SDS011;22767;47.328;9.640;2024-03-02T13:47:14;0.52;;;0.40;;
36829;SDS011;22767;47.328;9.640;2024-03-02T13:49:41;0.93;;;0.70;;
36829;SDS011;22767;47.328;9.640;2024-03-02T13:52:18;1.92;;;0.80;;
36829;SDS011;22767;47.328;9.640;2024-03-02T13:54:46;1.00;;;0.73;;
36829;SDS011;22767;47.328;9.640;2024-03-02T13:57:12;0.73;;;0.70;;
36829;SDS011;22767;47.328;9.640;2024-03-02T13:59:39;1.10;;;1.00;;
36829;SDS011;22767;47.328;9.640;2024-03-02T14:02:06;2.10;;;0.70;;
36829;SDS011;22767;47.328;9.640;2024-03-02T14:04:33;1.58;;;0.70;;
36829;SDS011;22767;47.328;9.640;2024-03-02T14:06:59;1.13;;;0.80;;
36829;SDS011;22767;47.328;9.640;2024-03-02T14:09:32;1.60;;;1.00;;
36829;SDS011;22767;47.328;9.640;2024-03-02T14:11:58;1.10;;;0.77;;
36829;SDS011;22767;47.328;9.640;2024-03-02T14:48:03;3.28;;;1.45;;
36829;SDS011;22767;47.328;9.640;2024-03-02T14:50:36;2.60;;;1.23;;
36829;SDS011;22767;47.328;9.640;2024-03-02T14:53:02;1.30;;;1.10;;
36829;SDS011;22767;47.328;9.640;2024-03-02T14:55:28;2.65;;;1.30;;
36829;SDS011;22767;47.328;9.640;2024-03-02T14:57:54;1.10;;;1.00;;
36829;SDS011;22767;47.328;9.640;2024-03-02T15:00:20;1.20;;;1.00;;
36829;SDS011;22767;47.328;9.640;2024-03-02T15:02:46;2.10;;;1.20;;
36829;SDS011;22767;47.328;9.640;2024-03-02T15:05:13;2.38;;;1.10;;
36829;SDS011;22767;47.328;9.640;2024-03-02T15:07:39;1.98;;;1.30;;
36829;SDS011;22767;47.328;9.640;2024-03-02T15:10:05;2.10;;;1.10;;
36829;SDS011;22767;47.328;9.640;2024-03-02T15:12:32;1.35;;;0.90;;
36829;SDS011;22767;47.328;9.640;2024-03-02T15:14:58;2.55;;;1.20;;
36829;SDS011;22767;47.328;9.640;2024-03-02T15:17:24;1.90;;;1.13;;
36829;SDS011;22767;47.328;9.640;2024-03-02T15:19:57;2.25;;;1.30;;
36829;SDS011;22767;47.328;9.640;2024-03-02T15:22:23;2.67;;;1.65;;
36829;SDS011;22767;47.328;9.640;2024-03-02T15:24:50;2.30;;;1.42;;
36829;SDS011;22767;47.328;9.640;2024-03-02T15:27:16;2.30;;;1.50;;
36829;SDS011;22767;47.328;9.640;2024-03-02T15:29:48;2.72;;;1.27;;
36829;SDS011;22767;47.328;9.640;2024-03-02T15:32:15;3.22;;;1.52;;
36829;SDS011;22767;47.328;9.640;2024-03-02T15:34:41;3.17;;;2.17;;
36829;SDS011;22767;47.328;9.640;2024-03-02T15:37:08;1.85;;;1.58;;
36829;SDS011;22767;47.328;9.640;2024-03-02T15:39:34;2.72;;;2.10;;
36829;SDS011;22767;47.328;9.640;2024-03-02T15:42:00;4.43;;;2.30;;
36829;SDS011;22767;47.328;9.640;2024-03-02T15:44:28;5.15;;;2.10;;
36829;SDS011;22767;47.328;9.640;2024-03-02T15:46:54;4.38;;;2.53;;
36829;SDS011;22767;47.328;9.640;2024-03-02T15:49:20;3.65;;;1.77;;
36829;SDS011;22767;47.328;9.640;2024-03-02T15:51:49;4.68;;;2.00;;
36829;SDS011;22767;47.328;9.640;2024-03-02T15:54:15;2.13;;;1.92;;
36829;SDS011;22767;47.328;9.640;2024-03-02T15:56:41;2.65;;;2.08;;
36829;SDS011;22767;47.328;9.640;2024-03-02T15:59:08;2.05;;;1.60;;
36829;SDS011;22767;47.328;9.640;2024-03-02T16:01:34;1.75;;;1.52;;
36829;SDS011;22767;47.328;9.640;2024-03-02T16:04:00;5.22;;;2.25;;
36829;SDS011;22767;47.328;9.640;2024-03-02T16:06:29;2.15;;;1.75;;
36829;SDS011;22767;47.328;9.640;2024-03-02T16:08:55;3.63;;;2.40;;
36829;SDS011;22767;47.328;9.640;2024-03-02T16:11:25;7.20;;;4.18;;